Anguilla, MS

5:49 AM CDT on September 19, 2014 (GMT -0500)
Mid Delta Regional | Change Station
CLOSE
Current Station
Airport
Location: Greenville,
Elevation: 131 ft
Nearby Weather Stations

Elev 131 ft 33.48 °N, 90.99 °W | Updated 56 minutes ago

Clear
Clear
66 °F
Feels Like 66 °F
N
5
Wind Variable Wind from North

Today
High -- | Low -- °F
--% Chance of Precip.
Yesterday
High -- | Low -- °F
Precip. -- in
6:49 AM 7:04 PM
Waning Crescent, 20% visible
Pressure 29.96 in
Visibility 5.0 miles
Clouds Few 100 ft
Dew Point 64 °F
Humidity 93%
Rainfall 0.00 in
Snow Depth Not available.
UV 0 out of 12
Pollen 10.10 out of 12
Air Quality Not available.
Flu Activity Not available.
METAR KGLH 190953Z AUTO 01004KT 5SM BR FEW001 19/18 A2994 RMK AO2 SLP146 T01890178

More Conditions Fewer Conditions

Pressure 29.96 in
Visibility 5.0 miles
Clouds Few 100 ft
Dew Point 64 °F
Humidity 93%
Rainfall 0.00 in
Snow Depth Not available.
UV 0 out of 12
Pollen 10.10 out of 12
Air Quality Not available.
Flu Activity Not available.
METAR KGLH 190953Z AUTO 01004KT 5SM BR FEW001 19/18 A2994 RMK AO2 SLP146 T01890178

More Conditions Fewer Conditions

10-Day Weather Forecast

Almanac

Astronomy

Sep. 19, 2014 Rise Set
Actual Time 6:49 AM CDT 7:04 PM CDT
Civil Twilight 6:24 AM CDT 7:28 PM CDT
Nautical Twilight 5:55 AM CDT 7:57 PM CDT
Astronomical Twilight 5:26 AM CDT 8:26 PM CDT
Moon 2:45 AM CDT 4:23 PM CDT
Length of Visible Light 13h 03m
Length of Day
12h 14m
Tomorrow will be 2m 2s shorter.
Waning Crescent, 20% of the Moon is Illuminated
Today
Waning Crescent
Sep 24
New
Oct 1
First Quarter
Oct 8
Full
Oct 15
Last Quarter

Today's Extremes

State Highs State Lows

Community

WunderPhotos

Upload Photos

1,754,591 photos uploaded!

Nearby

Snow Depth

Station Depth Elevation
No new snow has been reported.

Earthquake Activity

City Distance Mag. Time & Date
No recent earthquake activity has been reported nearby.
Minimum magnitude displayed is 2.5.

Coastal Water Temperatures

Place Temperature
No Stations Reporting

Nearby Weather Stations